X  Κλείσε Στοιχεία αεροπορικών μετεωρολογικών δεδομένων METAR     LGTS Thessaloniki Macedonia International Airport
θερμοκρασία
5°C θερμοκρασία
-1°C Σημείο δρόσου
66% Υγρασία



Ανεμος
11 KM/H
7 MPH
3 M/S
6 KTS



320°
VD
Τρέχουσες συνθήκες

Μερικώς συννεφιασμένος Μερικώς συννεφιασμένος
πίεση 1026.92 (hPa) - 30.32 (inHg)
Ορατότητα 6.2 (μίλι) - 10 (km)
Aεροδρόμιο
Κωδικός αεροδρομίου LGTS

Τοποθεσία: Thessaloniki Macedonia International Airport
Απόσταση: 85 (km)

Metar:
LGTS 271020Z 32006KT 9999 FEW030 05/M01 Q1027 NOSIG

ώρα: 27-01-2022 12:20 EET